Time;durP1;ratioP1;P1;durP2;ratioP2;P2;SDS_P1;SDS_P2;PMS_P1;PMS_P2;Temp;Humidity;BMP_temperature;BMP_pressure;BME280_temperature;BME280_humidity;BME280_pressure;Samples;Min_cycle;Max_cycle;Signal;HPM_P1;HPM_P2
2021/10/22 00:00:09;;;;;;;33.00;28.23;;;;;;;12.55;65.39;99730.50;5011934;28;20022;-76
2021/10/22 00:02:35;;;;;;;34.83;28.20;;;;;;;12.53;65.73;99733.34;5011851;28;20032;-76
2021/10/22 00:05:00;;;;;;;30.98;25.13;;;;;;;12.17;65.55;99683.00;4994422;28;20129;-75
2021/10/22 00:07:26;;;;;;;29.40;26.23;;;;;;;12.48;65.83;99748.97;5011347;28;20538;-76
2021/10/22 00:09:51;;;;;;;34.63;28.65;;;;;;;12.33;66.03;99708.47;5011981;28;20037;-76
2021/10/22 00:12:17;;;;;;;35.42;28.65;;;;;;;12.46;65.64;99729.81;5011722;28;20104;-75
2021/10/22 00:14:42;;;;;;;31.48;27.40;;;;;;;12.07;65.91;99675.38;5011745;28;20392;-76
2021/10/22 00:17:09;;;;;;;30.05;26.63;;;;;;;12.24;65.63;99701.63;5011611;28;20042;-75
2021/10/22 00:19:36;;;;;;;28.20;23.88;;;;;;;12.33;66.09;99724.34;5011415;28;20109;-75
2021/10/22 00:22:01;;;;;;;25.23;22.52;;;;;;;12.37;66.08;99742.31;5011489;28;20026;-75
2021/10/22 00:24:27;;;;;;;26.23;22.48;;;;;;;11.94;66.10;99680.50;5011718;28;20415;-81
2021/10/22 00:26:52;;;;;;;27.48;24.48;;;;;;;12.20;66.48;99711.75;5011603;28;20090;-80
2021/10/22 00:29:18;;;;;;;26.45;22.42;;;;;;;12.28;66.30;99732.03;5011498;28;20037;-80
2021/10/22 00:31:43;;;;;;;27.90;22.00;;;;;;;12.24;66.13;99712.22;5011339;28;20033;-80
2021/10/22 00:34:08;;;;;;;27.38;23.08;;;;;;;12.28;66.34;99718.78;5011534;28;20092;-80
2021/10/22 00:36:36;;;;;;;26.92;24.13;;;;;;;12.06;66.23;99705.47;5011399;28;20025;-80
2021/10/22 00:39:02;;;;;;;27.45;24.15;;;;;;;11.74;65.97;99627.25;5011555;28;20084;-80
2021/10/22 00:41:27;;;;;;;25.17;22.48;;;;;;;12.13;66.08;99708.22;5011428;28;20462;-81
2021/10/22 00:43:53;;;;;;;28.20;24.67;;;;;;;11.73;65.91;99638.00;5011410;28;20064;-81
2021/10/22 00:46:18;;;;;;;27.17;23.45;;;;;;;11.73;66.39;99649.41;5011310;28;20029;-80
2021/10/22 00:48:43;;;;;;;25.80;22.55;;;;;;;12.24;66.26;99731.56;5011148;28;20037;-80
2021/10/22 00:51:13;;;;;;;28.40;24.08;;;;;;;11.73;66.33;99638.84;5011151;28;20510;-80
2021/10/22 00:53:39;;;;;;;29.17;23.73;;;;;;;12.01;66.18;99677.94;5011518;28;20407;-81
2021/10/22 00:56:07;;;;;;;26.65;23.75;;;;;;;12.08;66.44;99694.72;5011360;28;20042;-80
2021/10/22 00:58:34;;;;;;;29.20;24.45;;;;;;;12.37;66.48;99734.38;5011243;28;20030;-80
2021/10/22 01:00:59;;;;;;;28.67;23.33;;;;;;;12.17;66.46;99714.78;5011169;28;20026;-81
2021/10/22 01:03:25;;;;;;;30.58;25.08;;;;;;;11.91;66.03;99664.97;5011266;28;20084;-81
2021/10/22 01:05:51;;;;;;;28.25;24.08;;;;;;;12.32;66.44;99728.81;5011329;28;20101;-81
2021/10/22 01:08:16;;;;;;;26.60;23.70;;;;;;;12.31;66.82;99726.34;5010921;28;20053;-80
2021/10/22 01:10:42;;;;;;;31.05;24.52;;;;;;;12.32;65.96;99738.59;5010970;28;20030;-81
2021/10/22 01:13:07;;;;;;;29.10;24.27;;;;;;;12.03;66.46;99689.97;5011166;28;20026;-80
2021/10/22 01:15:34;;;;;;;29.98;23.83;;;;;;;11.78;66.26;99651.53;4993407;28;20482;-80
2021/10/22 01:18:00;;;;;;;27.85;24.85;;;;;;;11.84;66.53;99671.16;5012186;28;20414;-80
2021/10/22 01:20:26;;;;;;;27.38;22.27;;;;;;;11.71;66.25;99645.31;4997203;28;20205;-81
2021/10/22 01:22:53;;;;;;;31.90;25.65;;;;;;;11.95;66.51;99686.59;5014819;28;20108;-81
2021/10/22 01:25:22;;;;;;;28.17;25.10;;;;;;;12.19;66.30;99723.34;5014934;28;20030;-75
2021/10/22 01:27:48;;;;;;;31.88;27.13;;;;;;;12.20;66.21;99734.75;5014688;28;20550;-76
2021/10/22 01:30:17;;;;;;;30.08;26.77;;;;;;;12.20;66.32;99730.28;5014593;28;20030;-76
2021/10/22 01:32:43;;;;;;;29.77;26.58;;;;;;;12.06;66.00;99713.41;5014415;28;20029;-75
2021/10/22 01:35:10;;;;;;;30.58;26.13;;;;;;;11.87;66.01;99686.66;5014385;28;20030;-76
2021/10/22 01:37:36;;;;;;;31.88;26.27;;;;;;;12.16;65.73;99726.38;5014465;28;20022;-75
2021/10/22 01:40:04;;;;;;;33.60;27.67;;;;;;;12.16;66.00;99734.31;4997051;28;20065;-76
2021/10/22 01:42:30;;;;;;;29.58;24.67;;;;;;;11.82;66.04;99673.97;5014553;28;20028;-75
2021/10/22 01:44:55;;;;;;;35.65;28.85;;;;;;;11.94;65.88;99685.78;5014382;28;20414;-76
2021/10/22 01:47:22;;;;;;;33.28;27.92;;;;;;;11.81;65.85;99682.91;5014082;28;20140;-76
2021/10/22 01:49:47;;;;;;;38.65;29.35;;;;;;;11.76;66.08;99690.56;5014096;28;20533;-76
2021/10/22 01:52:14;;;;;;;31.35;27.63;;;;;;;11.88;65.85;99701.53;5014197;28;20030;-76
2021/10/22 01:54:40;;;;;;;32.58;27.90;;;;;;;11.55;65.78;99648.13;5014159;28;20029;-75
2021/10/22 01:57:07;;;;;;;34.25;28.35;;;;;;;11.93;65.58;99723.00;5014058;28;20157;-75
2021/10/22 01:59:32;;;;;;;34.22;28.95;;;;;;;12.03;66.23;99745.53;4996396;28;20037;-75
2021/10/22 02:01:58;;;;;;;32.65;26.67;;;;;;;12.03;65.39;99758.78;5014043;28;20029;-75
2021/10/22 02:04:23;;;;;;;30.02;26.45;;;;;;;12.02;65.86;99743.91;5014005;28;20380;-75
2021/10/22 02:06:49;;;;;;;33.55;27.23;;;;;;;12.05;65.33;99748.81;5013947;28;20115;-76
2021/10/22 02:09:16;;;;;;;29.70;25.98;;;;;;;11.58;65.80;99676.88;5013915;28;20514;-76
2021/10/22 02:11:42;;;;;;;30.73;25.52;;;;;;;12.02;65.49;99753.66;5013960;28;20060;-76
2021/10/22 02:14:07;;;;;;;33.67;26.92;;;;;;;11.53;65.53;99679.22;5013928;28;20526;-76
2021/10/22 02:16:33;;;;;;;29.15;25.27;;;;;;;11.61;65.59;99693.19;5013647;28;20103;-75
2021/10/22 02:18:59;;;;;;;34.78;27.38;;;;;;;11.87;65.92;99731.63;5013793;28;20050;-75
2021/10/22 02:21:25;;;;;;;35.53;27.08;;;;;;;11.94;65.10;99751.09;5013591;28;20040;-76
2021/10/22 02:23:51;;;;;;;35.40;26.90;;;;;;;11.96;65.23;99749.91;4996153;28;20056;-76
2021/10/22 02:26:16;;;;;;;35.33;26.42;;;;;;;11.90;65.36;99742.72;5013766;28;20041;-76
2021/10/22 02:28:42;;;;;;;39.15;28.70;;;;;;;11.92;65.27;99753.94;5013057;28;20076;-76
2021/10/22 02:31:08;;;;;;;36.97;29.38;;;;;;;11.77;64.90;99735.38;5013509;28;20030;-76
2021/10/22 02:33:33;;;;;;;45.00;30.35;;;;;;;11.69;65.20;99729.31;5013313;28;20475;-76
2021/10/22 02:35:59;;;;;;;35.78;28.25;;;;;;;11.58;64.85;99714.72;5013446;28;20026;-76
2021/10/22 02:38:24;;;;;;;35.05;28.60;;;;;;;11.81;65.35;99775.50;5013387;28;20025;-76
2021/10/22 02:40:49;;;;;;;37.15;28.60;;;;;;;11.28;65.34;99700.59;5013239;28;20032;-76
2021/10/22 02:43:15;;;;;;;37.45;28.30;;;;;;;11.23;65.53;99694.22;5013412;28;20026;-75
2021/10/22 02:45:40;;;;;;;36.60;28.33;;;;;;;11.72;64.77;99773.91;5013101;28;20100;-76
2021/10/22 02:48:06;;;;;;;32.80;26.70;;;;;;;11.41;65.10;99748.41;5013209;28;20034;-76
2021/10/22 02:50:31;;;;;;;34.45;26.90;;;;;;;11.66;65.65;99778.09;5013233;28;20026;-75
2021/10/22 02:53:00;;;;;;;27.85;24.30;;;;;;;11.48;65.05;99764.38;5013174;28;20092;-75
2021/10/22 02:55:25;;;;;;;34.85;27.60;;;;;;;11.13;65.51;99715.56;5013073;28;20084;-76
2021/10/22 02:57:51;;;;;;;29.48;24.88;;;;;;;11.58;65.02;99786.09;4995352;28;20029;-75
2021/10/22 03:00:17;;;;;;;28.58;24.75;;;;;;;11.27;64.98;99733.31;5012863;28;20113;-75
2021/10/22 03:02:45;;;;;;;31.75;26.35;;;;;;;11.50;65.05;99778.25;5012681;28;20411;-75
2021/10/22 03:05:11;;;;;;;31.20;25.23;;;;;;;11.36;65.32;99769.28;5012808;28;20606;-75
2021/10/22 03:07:37;;;;;;;25.25;21.80;;;;;;;11.18;65.09;99736.22;5012727;28;20105;-76
2021/10/22 03:10:05;;;;;;;27.77;23.83;;;;;;;11.35;65.12;99772.91;5012763;28;20479;-75
2021/10/22 03:12:30;;;;;;;27.55;23.42;;;;;;;11.41;65.12;99784.59;5012797;28;20057;-76
2021/10/22 03:14:56;;;;;;;24.98;22.25;;;;;;;11.45;64.88;99799.94;5012740;28;20065;-76
2021/10/22 03:17:21;;;;;;;26.13;21.90;;;;;;;11.44;64.87;99800.09;5012532;28;20541;-75
2021/10/22 03:19:47;;;;;;;27.73;21.73;;;;;;;11.31;65.24;99778.72;5012566;28;20041;-76
2021/10/22 03:22:13;;;;;;;26.40;22.27;;;;;;;11.35;65.55;99783.47;4995012;28;20124;-75
2021/10/22 03:24:39;;;;;;;25.38;21.58;;;;;;;11.38;65.18;99787.59;5012690;28;20025;-75
2021/10/22 03:27:10;;;;;;;29.75;23.30;;;;;;;10.82;64.87;99713.81;5012534;28;20033;-76
2021/10/22 03:29:35;;;;;;;28.15;21.95;;;;;;;11.29;65.38;99786.00;5012457;28;20026;-76
2021/10/22 03:32:01;;;;;;;25.35;20.48;;;;;;;11.06;65.25;99744.53;5012692;28;20033;-75
2021/10/22 03:34:26;;;;;;;29.35;23.27;;;;;;;11.15;65.51;99790.25;5012474;28;20026;-75
2021/10/22 03:36:51;;;;;;;29.98;24.58;;;;;;;11.21;65.60;99783.44;5012470;28;20041;-74
2021/10/22 03:39:17;;;;;;;29.15;23.15;;;;;;;11.26;65.86;99808.34;5012227;28;20108;-76
2021/10/22 03:41:42;;;;;;;29.25;24.23;;;;;;;10.86;65.41;99740.69;5011330;28;20033;-76
2021/10/22 03:44:08;;;;;;;29.80;25.60;;;;;;;11.34;65.10;99812.75;5012272;28;20030;-75
2021/10/22 03:46:33;;;;;;;28.98;23.25;;;;;;;11.01;65.30;99765.38;4994631;28;20407;-76
2021/10/22 03:48:58;;;;;;;35.63;24.67;;;;;;;10.93;64.91;99762.78;5012070;28;20037;-75
2021/10/22 03:51:24;;;;;;;29.83;24.98;;;;;;;10.91;65.18;99759.50;5012205;28;20096;-76
2021/10/22 03:53:49;;;;;;;34.92;27.77;;;;;;;10.88;65.04;99756.38;5012117;28;20144;-75
2021/10/22 03:56:15;;;;;;;32.22;26.55;;;;;;;11.24;65.34;99818.25;5011915;28;20108;-75
2021/10/22 03:58:40;;;;;;;32.60;27.38;;;;;;;10.95;65.42;99776.63;5011921;28;20022;-76
2021/10/22 04:01:06;;;;;;;30.63;25.45;;;;;;;11.17;65.53;99809.38;5011977;28;20109;-75
2021/10/22 04:03:31;;;;;;;34.25;26.45;;;;;;;10.29;65.37;99671.53;5011971;28;20025;-75
2021/10/22 04:05:56;;;;;;;29.90;24.20;;;;;;;11.21;65.33;99818.63;5011947;28;20026;-76
2021/10/22 04:08:22;;;;;;;26.25;23.35;;;;;;;11.23;65.33;99813.97;5011722;28;20026;-75
2021/10/22 04:10:47;;;;;;;29.58;25.40;;;;;;;11.22;64.74;99804.41;5011932;28;20032;-76
2021/10/22 04:13:13;;;;;;;28.60;24.95;;;;;;;11.03;65.25;99768.66;5012129;28;20099;-76
2021/10/22 04:15:42;;;;;;;28.35;24.42;;;;;;;10.91;64.70;99753.38;5011634;28;20049;-76
2021/10/22 04:18:10;;;;;;;28.23;24.48;;;;;;;11.30;65.04;99820.19;4994020;28;20038;-76
2021/10/22 04:20:35;;;;;;;27.65;23.83;;;;;;;11.29;64.97;99823.03;5011756;28;20022;-76
2021/10/22 04:23:01;;;;;;;29.98;25.88;;;;;;;10.89;64.68;99758.00;5011657;28;20041;-76
2021/10/22 04:25:27;;;;;;;28.65;24.38;;;;;;;11.29;65.22;99815.09;5011662;28;20556;-76
2021/10/22 04:27:53;;;;;;;30.08;25.50;;;;;;;10.76;64.51;99743.56;5011595;28;20038;-76
2021/10/22 04:30:18;;;;;;;33.17;26.70;;;;;;;11.27;65.11;99815.25;5011434;28;20164;-75
2021/10/22 04:32:44;;;;;;;34.80;26.25;;;;;;;10.87;64.55;99738.88;5011413;28;20083;-76
2021/10/22 04:35:09;;;;;;;31.05;24.63;;;;;;;11.26;65.42;99818.91;5011229;28;20157;-74
2021/10/22 04:40:31;;;;;;;30.30;25.58;;;;;;;10.62;64.64;99732.94;5006054;28;20033;-76
2021/10/22 04:42:59;;;;;;;31.80;25.83;;;;;;;11.26;64.72;99834.75;5011524;28;20018;-75
2021/10/22 04:45:25;;;;;;;35.47;27.35;;;;;;;11.29;64.80;99833.59;5011407;28;20037;-75
2021/10/22 04:47:51;;;;;;;35.50;26.30;;;;;;;10.91;64.55;99777.97;5011241;28;20034;-76
2021/10/22 04:50:16;;;;;;;38.13;29.23;;;;;;;11.13;64.58;99811.53;5011503;28;20022;-76
2021/10/22 04:52:42;;;;;;;36.80;29.15;;;;;;;10.96;64.94;99777.47;4996161;28;20044;-76
2021/10/22 04:55:09;;;;;;;40.92;29.10;;;;;;;11.33;64.89;99843.63;5015133;28;20025;-76
2021/10/22 04:57:35;;;;;;;46.17;31.38;;;;;;;11.25;64.64;99832.31;4997634;28;20033;-76
2021/10/22 05:00:02;;;;;;;45.40;34.25;;;;;;;10.97;64.82;99777.28;4997570;28;20487;-77
2021/10/22 05:02:27;;;;;;;48.75;37.47;;;;;;;11.31;64.74;99840.34;5014960;28;20062;-76
2021/10/22 05:04:52;;;;;;;44.38;33.92;;;;;;;11.35;65.10;99833.72;5023278;28;20061;-76
2021/10/22 05:07:18;;;;;;;41.22;30.42;;;;;;;11.42;64.77;99842.59;5034448;28;20044;-76
2021/10/22 05:09:44;;;;;;;45.42;33.05;;;;;;;11.49;64.39;99845.34;5034656;28;20037;-76
2021/10/22 05:12:09;;;;;;;44.72;36.53;;;;;;;10.81;64.36;99729.84;5016979;28;20026;-76
2021/10/22 05:14:35;;;;;;;44.58;36.65;;;;;;;11.47;64.99;99850.00;5034671;28;20468;-76
2021/10/22 05:17:02;;;;;;;57.95;40.88;;;;;;;11.05;64.77;99779.06;5034480;28;20045;-76
2021/10/22 05:19:28;;;;;;;49.08;36.78;;;;;;;11.56;64.42;99862.16;5034381;28;20033;-76
2021/10/22 05:21:54;;;;;;;52.65;35.28;;;;;;;11.59;64.94;99858.34;5034125;28;20036;-75
2021/10/22 05:24:20;;;;;;;50.97;36.35;;;;;;;11.64;64.46;99858.63;5034505;28;21087;-75
2021/10/22 05:26:45;;;;;;;52.55;34.45;;;;;;;11.35;65.02;99815.22;5016478;28;20045;-75
2021/10/22 05:29:11;;;;;;;58.00;37.00;;;;;;;11.28;64.70;99779.91;5034202;28;20083;-75
2021/10/22 05:31:36;;;;;;;48.83;36.40;;;;;;;11.79;64.65;99862.16;5016482;28;20048;-75
2021/10/22 05:34:02;;;;;;;55.08;37.75;;;;;;;11.59;64.72;99829.25;5034420;28;20029;-75
2021/10/22 05:36:27;;;;;;;48.00;34.42;;;;;;;11.87;64.59;99870.03;5034366;28;20400;-75
2021/10/22 05:38:52;;;;;;;51.60;34.08;;;;;;;11.49;64.55;99807.50;5034030;28;20116;-75
2021/10/22 05:41:18;;;;;;;51.60;35.40;;;;;;;11.85;64.41;99853.50;5033510;28;20179;-75
2021/10/22 05:43:43;;;;;;;45.42;34.50;;;;;;;11.96;64.64;99866.34;5033879;28;20036;-74
2021/10/22 05:46:09;;;;;;;45.08;34.30;;;;;;;11.97;64.76;99875.94;5033789;28;20026;-75
2021/10/22 05:48:34;;;;;;;47.63;34.22;;;;;;;11.61;64.38;99808.72;5033703;28;20048;-75
2021/10/22 05:51:00;;;;;;;45.58;34.08;;;;;;;11.91;64.24;99854.66;5033697;28;20115;-75
2021/10/22 05:53:26;;;;;;;42.17;32.50;;;;;;;11.72;64.32;99819.69;5016072;28;20036;-76
2021/10/22 05:55:52;;;;;;;39.75;31.88;;;;;;;11.88;63.99;99839.94;5032998;28;20038;-75
2021/10/22 05:58:17;;;;;;;36.65;29.75;;;;;;;12.17;63.67;99905.38;5033271;28;20432;-75
2021/10/22 06:00:43;;;;;;;32.28;26.92;;;;;;;12.20;64.29;99891.78;5032508;28;20029;-75
2021/10/22 06:03:08;;;;;;;31.73;26.48;;;;;;;12.23;64.14;99888.75;5032896;28;20025;-76
2021/10/22 06:05:34;;;;;;;38.47;29.08;;;;;;;11.78;63.85;99823.50;5023635;28;20030;-75
2021/10/22 06:08:00;;;;;;;40.72;30.55;;;;;;;11.76;64.23;99806.94;5012223;28;20052;-75
2021/10/22 06:10:26;;;;;;;45.70;33.05;;;;;;;12.37;64.44;99893.25;5032782;28;20060;-75
2021/10/22 06:12:52;;;;;;;39.13;28.83;;;;;;;12.08;63.79;99843.75;5033268;28;20036;-75
2021/10/22 06:15:17;;;;;;;40.00;28.85;;;;;;;12.32;63.55;99869.16;5032334;28;20034;-76
2021/10/22 06:17:42;;;;;;;36.30;30.52;;;;;;;12.20;63.77;99844.13;5014619;28;20045;-76
2021/10/22 06:20:14;;;;;;;37.13;29.77;;;;;;;12.55;63.89;99882.31;5032901;28;20469;-76
2021/10/22 06:23:52;;;;;;;37.55;30.55;;;;;;;12.66;64.19;99910.19;5027879;28;20057;-75
2021/10/22 06:25:25;;;;;;;34.58;30.77;;;;;;;12.75;63.50;99916.22;5033219;28;20068;-76
2021/10/22 06:27:52;;;;;;;38.83;30.85;;;;;;;12.42;63.59;99860.94;5031934;28;20053;-75
2021/10/22 06:30:18;;;;;;;38.63;32.88;;;;;;;12.58;63.63;99878.47;5032265;28;20040;-76
2021/10/22 06:32:43;;;;;;;40.42;31.63;;;;;;;12.38;64.07;99838.47;5032797;28;20037;-76
2021/10/22 06:35:08;;;;;;;39.90;32.35;;;;;;;12.86;64.04;99911.28;5032934;28;20029;-75
2021/10/22 06:37:34;;;;;;;39.97;31.83;;;;;;;13.04;63.78;99924.97;5031925;28;20026;-76
2021/10/22 06:39:59;;;;;;;37.60;30.88;;;;;;;13.09;63.44;99927.06;5031046;28;20037;-76
2021/10/22 06:42:25;;;;;;;38.60;31.58;;;;;;;12.76;63.81;99863.06;5013834;28;20486;-77
2021/10/22 06:44:50;;;;;;;40.75;33.15;;;;;;;12.97;63.64;99886.16;5032388;28;20017;-75
2021/10/22 06:47:16;;;;;;;35.05;29.80;;;;;;;13.16;63.63;99909.41;5014305;28;20059;-76
2021/10/22 06:49:41;;;;;;;37.03;29.25;;;;;;;13.05;63.55;99883.38;5031538;28;20064;-76
2021/10/22 06:52:07;;;;;;;31.45;26.90;;;;;;;13.47;63.37;99943.72;5032543;28;20046;-75
2021/10/22 06:54:32;;;;;;;31.27;26.33;;;;;;;13.46;63.23;99931.44;5032581;28;20044;-76
2021/10/22 06:56:58;;;;;;;38.53;28.80;;;;;;;13.00;62.92;99848.66;5032164;28;20044;-76
2021/10/22 06:59:23;;;;;;;33.47;28.02;;;;;;;13.48;63.13;99907.41;5032065;28;20021;-76
2021/10/22 07:01:48;;;;;;;29.95;24.38;;;;;;;13.77;62.89;99946.25;5030857;28;20032;-76
2021/10/22 07:04:15;;;;;;;29.58;25.52;;;;;;;13.75;62.42;99938.50;5007836;28;20049;-76
2021/10/22 07:09:24;;;;;;;38.25;28.17;;;;;;;13.94;62.67;99947.66;5032041;28;20036;-75
2021/10/22 07:11:50;;;;;;;36.53;28.88;;;;;;;13.92;62.50;99926.63;5025853;28;20033;-76
2021/10/22 07:14:18;;;;;;;33.22;27.27;;;;;;;14.10;62.36;99952.72;5030814;28;20025;-76
2021/10/22 07:16:43;;;;;;;32.47;26.42;;;;;;;14.18;62.36;99939.34;5028252;28;20053;-75
2021/10/22 07:19:10;;;;;;;27.02;23.15;;;;;;;14.21;62.22;99946.09;5031808;28;20050;-76
2021/10/22 07:21:42;;;;;;;26.52;22.17;;;;;;;13.84;62.28;99894.91;5014037;28;20037;-75
2021/10/22 07:24:15;;;;;;;30.20;24.00;;;;;;;13.84;62.29;99886.94;5015146;28;20506;-76
2021/10/22 07:26:41;;;;;;;27.15;22.35;;;;;;;13.71;62.25;99865.59;5012093;28;20054;-76
2021/10/22 07:29:06;;;;;;;28.15;23.10;;;;;;;14.07;62.23;99920.41;5023152;28;20632;-76
2021/10/22 07:31:32;;;;;;;29.63;23.17;;;;;;;13.85;62.35;99888.56;5025805;28;20032;-76
2021/10/22 07:33:57;;;;;;;27.45;22.92;;;;;;;14.23;62.48;99950.19;5044340;28;20048;-76
2021/10/22 07:36:22;;;;;;;28.50;23.75;;;;;;;13.82;62.45;99888.13;5032005;28;20450;-76
2021/10/22 07:38:48;;;;;;;26.83;22.25;;;;;;;14.32;62.08;99946.38;5029652;28;20029;-75
2021/10/22 07:41:14;;;;;;;29.75;24.80;;;;;;;14.40;62.00;99950.75;5029773;28;20367;-75
2021/10/22 07:43:41;;;;;;;29.30;24.80;;;;;;;14.48;61.85;99947.97;5029110;28;20025;-75
2021/10/22 07:46:07;;;;;;;29.80;21.98;;;;;;;12.81;61.71;99674.38;5031135;28;20029;-75
2021/10/22 07:48:34;;;;;;;25.83;22.08;;;;;;;14.42;61.59;99935.47;5031252;28;20628;-76
2021/10/22 07:51:00;;;;;;;24.92;21.15;;;;;;;14.67;61.39;99945.66;5029081;28;20025;-75
2021/10/22 07:53:25;;;;;;;25.23;21.25;;;;;;;14.62;61.49;99927.63;5031225;28;20494;-76
2021/10/22 07:55:50;;;;;;;27.17;23.15;;;;;;;14.42;61.10;99882.34;5027831;28;20036;-76
2021/10/22 07:58:16;;;;;;;25.95;22.80;;;;;;;14.56;60.91;99899.19;5006245;28;20070;-75
2021/10/22 08:00:41;;;;;;;25.77;21.25;;;;;;;14.61;60.67;99894.09;5029011;28;20168;-76
2021/10/22 08:03:07;;;;;;;24.17;20.67;;;;;;;14.64;60.22;99891.03;5009285;28;20037;-76
2021/10/22 08:05:32;;;;;;;23.30;18.77;;;;;;;14.65;60.02;99876.75;5011054;28;20550;-76
2021/10/22 08:07:58;;;;;;;22.90;19.58;;;;;;;14.74;59.98;99880.06;5006601;28;20033;-76
2021/10/22 08:10:23;;;;;;;21.40;17.40;;;;;;;15.23;59.82;99952.53;5028730;28;20036;-75
2021/10/22 08:12:50;;;;;;;22.73;19.13;;;;;;;14.49;59.22;99826.56;5014473;28;20026;-76
2021/10/22 08:15:16;;;;;;;24.00;18.38;;;;;;;15.38;59.42;99941.72;5012623;28;20491;-75
2021/10/22 08:17:41;;;;;;;21.65;17.27;;;;;;;14.90;59.47;99867.28;5030989;28;20048;-75
2021/10/22 08:20:15;;;;;;;18.98;16.85;;;;;;;15.51;59.25;99939.13;5030898;28;20026;-75
2021/10/22 08:22:41;;;;;;;18.98;16.98;;;;;;;15.43;58.98;99910.03;5030866;28;20460;-75
2021/10/22 08:25:12;;;;;;;21.98;17.92;;;;;;;15.44;58.68;99895.69;5030721;28;20112;-75
2021/10/22 08:27:46;;;;;;;20.38;18.20;;;;;;;15.71;58.58;99917.09;5012441;28;20108;-75
2021/10/22 08:30:16;;;;;;;19.98;17.80;;;;;;;15.86;58.34;99931.06;5013238;28;20112;-75
2021/10/22 08:32:43;;;;;;;19.58;16.98;;;;;;;15.93;58.34;99936.41;5030987;28;20034;-76
2021/10/22 08:35:09;;;;;;;20.75;17.02;;;;;;;15.85;58.25;99908.13;5030706;28;20028;-76
2021/10/22 08:37:36;;;;;;;20.58;18.45;;;;;;;16.12;58.38;99927.59;5030742;28;20022;-75
2021/10/22 08:40:04;;;;;;;19.10;17.10;;;;;;;16.19;57.76;99933.75;5010249;28;20413;-76
2021/10/22 08:42:29;;;;;;;19.83;17.70;;;;;;;15.88;57.78;99879.25;5010794;28;20034;-75
2021/10/22 08:44:55;;;;;;;19.65;17.58;;;;;;;16.03;57.71;99883.53;5010840;28;20464;-75
2021/10/22 08:47:31;;;;;;;21.83;17.35;;;;;;;16.12;57.88;99882.31;4992999;28;20026;-75
2021/10/22 08:49:59;;;;;;;21.17;16.90;;;;;;;16.45;57.65;99933.75;5028276;28;20508;-74
2021/10/22 08:52:26;;;;;;;19.83;17.73;;;;;;;16.13;57.66;99866.13;5010728;28;20116;-76
2021/10/22 08:54:52;;;;;;;19.83;17.63;;;;;;;16.65;57.63;99932.91;5018014;28;20486;-76
2021/10/22 08:57:17;;;;;;;21.27;19.00;;;;;;;16.40;57.60;99871.44;5030230;28;20021;-76
2021/10/22 08:59:43;;;;;;;22.50;18.70;;;;;;;16.75;57.44;99912.00;4998492;28;20037;-75
2021/10/22 09:02:22;;;;;;;20.42;18.17;;;;;;;16.65;57.35;99883.13;5010471;28;20018;-76
2021/10/22 09:04:59;;;;;;;20.60;18.60;;;;;;;16.96;57.57;99916.25;5022153;28;20043;-76
2021/10/22 09:07:39;;;;;;;18.92;17.08;;;;;;;17.08;57.37;99917.22;5019165;28;20087;-76
2021/10/22 09:10:13;;;;;;;19.45;16.85;;;;;;;17.02;57.23;99886.06;5015381;28;20022;-75
2021/10/22 09:12:52;;;;;;;22.75;17.23;;;;;;;17.31;56.90;99908.75;5010743;28;20112;-76
2021/10/22 09:15:27;;;;;;;25.15;18.80;;;;;;;17.20;56.71;99882.72;5027224;28;20022;-75
2021/10/22 09:17:56;;;;;;;24.17;21.30;;;;;;;17.13;56.51;99840.06;5020455;28;20041;-76
2021/10/22 09:20:24;;;;;;;26.13;21.05;;;;;;;17.65;56.21;99903.00;5018435;28;20037;-76
2021/10/22 09:22:56;;;;;;;26.85;23.27;;;;;;;17.74;56.10;99898.25;5018381;28;20033;-76
2021/10/22 09:25:25;;;;;;;29.92;24.80;;;;;;;17.83;55.92;99904.16;5017154;28;20720;-80
2021/10/22 09:27:57;;;;;;;28.85;23.27;;;;;;;17.92;55.84;99890.34;5021813;28;20055;-79
2021/10/22 09:30:37;;;;;;;29.67;25.15;;;;;;;17.99;55.90;99888.44;5014025;28;20471;-80
2021/10/22 09:33:16;;;;;;;27.98;24.10;;;;;;;18.10;55.47;99887.75;5022056;28;20528;-79
2021/10/22 09:35:46;;;;;;;21.30;19.00;;;;;;;18.26;54.92;99907.75;5004435;28;20042;-80
2021/10/22 09:38:18;;;;;;;40.20;32.88;;;;;;;18.11;54.98;99853.81;5006719;28;20029;-80
2021/10/22 09:40:56;;;;;;;44.47;36.45;;;;;;;18.35;54.98;99879.69;5017442;28;20104;-79
2021/10/22 09:43:29;;;;;;;25.20;20.55;;;;;;;18.54;54.42;99901.09;5017492;28;20092;-80
2021/10/22 09:46:17;;;;;;;16.92;15.23;;;;;;;18.25;53.72;99831.28;5020251;28;20038;-80
2021/10/22 09:48:56;;;;;;;20.80;18.60;;;;;;;18.19;53.12;99813.44;5003070;28;20044;-79
2021/10/22 09:51:29;;;;;;;17.88;15.93;;;;;;;18.81;52.70;99891.00;5023940;28;20026;-80
2021/10/22 09:54:00;;;;;;;20.15;17.42;;;;;;;18.90;52.44;99893.16;5020417;28;20045;-80
2021/10/22 09:56:27;;;;;;;26.77;21.80;;;;;;;19.01;52.31;99884.38;5020845;28;20039;-80
2021/10/22 09:58:58;;;;;;;21.98;19.65;;;;;;;18.62;52.48;99813.44;5018296;28;20303;-79
2021/10/22 10:01:41;;;;;;;28.65;25.48;;;;;;;18.90;52.37;99841.50;5023863;28;20097;-80
2021/10/22 10:04:12;;;;;;;20.05;17.92;;;;;;;18.90;52.02;99826.28;5027320;28;20104;-79
2021/10/22 10:06:39;;;;;;;17.85;16.05;;;;;;;19.40;51.68;99882.25;5015333;28;20526;-80
2021/10/22 10:09:08;;;;;;;19.80;17.73;;;;;;;19.49;51.53;99880.06;5011879;28;20116;-80
2021/10/22 10:11:35;;;;;;;22.65;19.75;;;;;;;19.44;51.63;99869.22;5020058;28;20160;-79
2021/10/22 10:14:01;;;;;;;18.52;16.40;;;;;;;19.60;50.96;99869.44;5010977;28;20120;-80
2021/10/22 10:16:33;;;;;;;17.25;14.93;;;;;;;19.75;50.74;99873.53;5016785;28;20112;-79
2021/10/22 10:19:21;;;;;;;16.73;13.48;;;;;;;19.82;50.59;99879.63;4996993;28;20043;-79
2021/10/22 10:21:52;;;;;;;14.98;13.45;;;;;;;19.89;50.59;99874.97;5009784;28;20532;-79
2021/10/22 10:24:19;;;;;;;17.52;15.73;;;;;;;19.73;50.58;99822.88;5012195;28;20033;-75
2021/10/22 10:27:00;;;;;;;17.55;15.52;;;;;;;19.55;49.67;99786.28;4999142;28;20030;-74
2021/10/22 10:29:32;;;;;;;15.50;12.43;;;;;;;19.74;49.62;99788.84;4993550;28;20026;-76
2021/10/22 10:32:02;;;;;;;;;;;;;;;20.11;49.52;99853.81;5011117;28;20029;-76
2021/10/22 10:34:29;;;;;;;14.77;12.77;;;;;;;20.22;49.66;99853.00;5012915;28;19995;-75
2021/10/22 10:36:59;;;;;;;13.35;11.95;;;;;;;20.31;48.55;99855.09;5009288;28;20033;-75
2021/10/22 10:39:47;;;;;;;12.30;11.10;;;;;;;20.38;48.78;99851.47;5005683;28;20036;-76
2021/10/22 10:42:25;;;;;;;20.67;18.30;;;;;;;20.47;47.97;99850.91;4986128;28;20045;-76
2021/10/22 10:44:51;;;;;;;13.55;12.18;;;;;;;20.33;47.08;99816.50;5012712;28;20056;-75
2021/10/22 10:47:26;;;;;;;10.43;9.43;;;;;;;20.62;46.32;99851.25;4993962;28;20042;-75
2021/10/22 10:49:51;;;;;;;12.70;11.27;;;;;;;20.70;45.90;99860.78;5004895;28;20065;-75
2021/10/22 10:52:34;;;;;;;11.15;9.50;;;;;;;20.78;45.67;99843.50;5009538;28;20096;-75
2021/10/22 10:55:27;;;;;;;10.55;9.55;;;;;;;20.84;45.23;99840.72;5004337;28;20049;-76
2021/10/22 10:57:56;;;;;;;10.98;9.85;;;;;;;20.62;45.01;99799.44;5006166;28;20040;-75
2021/10/22 11:00:35;;;;;;;11.48;9.25;;;;;;;20.96;44.56;99834.50;5005660;28;20034;-74
2021/10/22 11:03:03;;;;;;;10.63;9.52;;;;;;;20.95;44.33;99831.00;5008409;28;20023;-76
2021/10/22 11:05:44;;;;;;;8.98;8.07;;;;;;;20.97;44.17;99830.75;4988450;28;20037;-75
2021/10/22 11:08:26;;;;;;;8.65;7.85;;;;;;;20.56;44.17;99773.56;5012443;28;20092;-75
2021/10/22 11:11:17;;;;;;;9.98;8.95;;;;;;;20.83;43.59;99796.16;5012396;28;20511;-75
2021/10/22 11:13:45;;;;;;;18.40;16.48;;;;;;;20.96;44.03;99818.41;5012402;28;20025;-75
2021/10/22 11:19:06;;;;;;;12.07;10.55;;;;;;;20.90;44.41;99812.94;5007814;28;20034;-74
2021/10/22 11:21:46;;;;;;;11.38;10.15;;;;;;;20.66;44.72;99776.47;5004610;28;20042;-76
2021/10/22 11:24:26;;;;;;;11.15;9.52;;;;;;;20.78;44.86;99806.75;5003353;28;20018;-74
2021/10/22 11:27:05;;;;;;;11.88;10.68;;;;;;;20.71;45.40;99798.03;5010164;28;20060;-75